TAF Text Data
IDs:
Format:
Raw Decoded Include METAR

Data at: 1614 UTC 03 Jul 2020

KABY 031120Z 0312/0412 33003KT P6SM SKC
  FM031400 07006KT P6SM SCT040
  FM031800 09006KT P6SM VCTS BKN040CB
  TEMPO 0319/0323 VRB15G25KT 4SM TSRA BKN035CB